createdAt,value
2022-08-10T00:03:07.670Z,100961.72
2022-08-10T00:13:08.983Z,100959.03
2022-08-10T00:23:11.383Z,100965.22
2022-08-10T00:33:12.701Z,100952.75
2022-08-10T00:43:14.064Z,100951.94
2022-08-10T00:53:15.402Z,100958.81
2022-08-10T01:03:16.715Z,100953.09
2022-08-10T01:13:38.003Z,100959.97
2022-08-10T01:23:39.355Z,100956.47
2022-08-10T01:34:02.065Z,100957.59
2022-08-10T01:44:03.667Z,100955.22
2022-08-10T01:54:09.277Z,100960.34
2022-08-10T02:04:13.533Z,100973.72
2022-08-10T02:14:15.034Z,100978.56
2022-08-10T02:24:16.367Z,100979.38
2022-08-10T02:34:17.625Z,100989.19
2022-08-10T02:45:21.245Z,100990.66
2022-08-10T02:54:43.201Z,100995.91
2022-08-10T03:04:55.442Z,100995.34
2022-08-10T03:14:59.984Z,100993.81
2022-08-10T03:25:01.319Z,100995.69
2022-08-10T03:35:02.665Z,100998.72
2022-08-10T03:45:04.427Z,101006.25
2022-08-10T03:55:05.758Z,101009.97
2022-08-10T04:05:07.082Z,101032.22
2022-08-10T04:15:08.390Z,101043.78
2022-08-10T04:25:09.737Z,101045.16
2022-08-10T04:35:11.132Z,101044.72
2022-08-10T04:45:12.454Z,101043.50
2022-08-10T04:55:13.779Z,101040.56
2022-08-10T05:05:15.116Z,101044.34
2022-08-10T05:15:18.345Z,101047.91
2022-08-10T05:25:19.850Z,101043.66
2022-08-10T05:35:21.381Z,101046.25
2022-08-10T05:45:22.808Z,101057.63
2022-08-10T05:55:24.121Z,101068.44
2022-08-10T06:05:25.472Z,101071.66
2022-08-10T06:15:50.615Z,101066.41
2022-08-10T06:26:11.977Z,101075.75
2022-08-10T06:36:09.614Z,101068.00
2022-08-10T06:46:11.055Z,101068.47
2022-08-10T06:56:12.391Z,101063.66
2022-08-10T07:06:13.820Z,101062.06
2022-08-10T07:16:15.494Z,101072.38
2022-08-10T07:26:16.796Z,101055.63
2022-08-10T07:36:18.350Z,101049.69
2022-08-10T07:46:19.622Z,101049.88
2022-08-10T07:56:45.335Z,101046.47
2022-08-10T08:06:42.362Z,101050.06
2022-08-10T08:16:43.759Z,101044.72
2022-08-10T08:26:46.143Z,101035.66
2022-08-10T08:36:57.439Z,101038.53
2022-08-10T08:47:00.904Z,101039.97
2022-08-10T08:57:02.246Z,101035.63
2022-08-10T09:07:07.292Z,101028.19
2022-08-10T09:17:29.006Z,101023.28
2022-08-10T09:27:30.349Z,101006.72
2022-08-10T09:38:01.319Z,101009.91
2022-08-10T09:48:02.298Z,101008.41
2022-08-10T09:58:04.401Z,100997.34
2022-08-10T10:08:05.732Z,100981.66
2022-08-10T10:18:07.125Z,100978.25
2022-08-10T10:28:08.457Z,100964.00
2022-08-10T10:38:09.798Z,100954.56
2022-08-10T10:48:11.116Z,100952.25
2022-08-10T10:58:20.747Z,100939.75
2022-08-10T11:08:29.577Z,100918.44
2022-08-10T11:18:33.769Z,100915.00
2022-08-10T11:28:36.849Z,100917.41
2022-08-10T11:38:57.614Z,100917.69
2022-08-10T11:49:03.845Z,100896.31
2022-08-10T11:59:24.207Z,100892.09
2022-08-10T12:10:09.247Z,100883.63
2022-08-10T12:20:01.651Z,100879.59
2022-08-10T12:30:04.757Z,100869.66
2022-08-10T12:40:34.087Z,100869.19
2022-08-10T12:50:33.445Z,100852.34
2022-08-10T13:00:35.301Z,100834.53
2022-08-10T13:10:36.539Z,100822.50
2022-08-10T13:20:37.872Z,100822.13
2022-08-10T13:30:39.213Z,100798.81
2022-08-10T13:40:40.520Z,100797.44
2022-08-10T13:50:41.960Z,100781.50
2022-08-10T14:00:43.259Z,100777.06
2022-08-10T14:11:08.807Z,100775.16
2022-08-10T14:21:05.937Z,100761.03
2022-08-10T14:31:07.985Z,100756.25
2022-08-10T14:41:09.248Z,100745.31
2022-08-10T14:51:10.643Z,100732.41
2022-08-10T15:01:13.739Z,100717.44
2022-08-10T15:12:12.328Z,100730.13
2022-08-10T15:21:42.678Z,100713.16
2022-08-10T15:32:03.654Z,100709.97
2022-08-10T15:42:05.108Z,100705.50
2022-08-10T15:52:06.481Z,100698.69
2022-08-10T16:02:15.755Z,100685.00
2022-08-10T16:12:18.331Z,100682.47
2022-08-10T16:22:34.348Z,100674.44
2022-08-10T16:32:38.653Z,100674.44
2022-08-10T16:42:44.428Z,100665.50
2022-08-10T16:52:46.373Z,100660.88
2022-08-10T17:02:47.714Z,100649.81
2022-08-10T17:12:49.070Z,100645.25
2022-08-10T17:22:54.205Z,100644.09
2022-08-10T17:32:56.089Z,100638.97
2022-08-10T17:42:57.460Z,100648.88
2022-08-10T17:52:58.743Z,100651.88
2022-08-10T18:02:59.988Z,100660.78
2022-08-10T18:13:01.406Z,100660.81
2022-08-10T18:23:02.907Z,100654.47
2022-08-10T18:33:04.176Z,100668.88
2022-08-10T18:43:09.991Z,100668.47
2022-08-10T18:53:26.887Z,100673.06
2022-08-10T19:03:36.719Z,100687.00
2022-08-10T19:13:38.025Z,100687.28
2022-08-10T19:23:39.332Z,100690.50
2022-08-10T19:33:42.663Z,100701.09
2022-08-10T19:44:00.409Z,100716.56
2022-08-10T19:54:03.570Z,100722.59
2022-08-10T20:04:04.951Z,100720.53
2022-08-10T20:14:09.383Z,100722.91
2022-08-10T20:24:23.037Z,100729.81
2022-08-10T20:34:24.347Z,100722.88
2022-08-10T20:44:25.697Z,100724.09
2022-08-10T20:54:27.064Z,100727.25
2022-08-10T21:04:28.402Z,100724.19
2022-08-10T21:14:29.744Z,100722.28
2022-08-10T21:24:31.093Z,100723.56
2022-08-10T21:34:34.304Z,100717.28
2022-08-10T21:45:01.060Z,100724.59
2022-08-10T21:55:24.305Z,100719.16
2022-08-10T22:06:04.320Z,100714.72
2022-08-10T22:16:24.595Z,100713.81
2022-08-10T22:26:44.542Z,100725.19
2022-08-10T22:37:20.932Z,100727.16
2022-08-10T22:47:41.024Z,100746.22
2022-08-10T22:58:00.949Z,100744.16
2022-08-10T23:08:02.218Z,100743.28
2022-08-10T23:18:22.296Z,100740.34
2022-08-10T23:28:38.817Z,100732.22
2022-08-10T23:38:46.169Z,100733.09
2022-08-10T23:48:58.623Z,100730.69
2022-08-10T23:58:59.954Z,100742.00
